sensor_id;sensor_type;location;lat;lon;timestamp;pressure;altitude;pressure_sealevel;temperature;humidity
24045;BME280;26257;49.442;8.422;2022-09-03T00:01:54;99945.13;;;25.09;34.08
24045;BME280;26257;49.442;8.422;2022-09-03T00:04:31;99947.16;;;25.21;34.02
24045;BME280;26257;49.442;8.422;2022-09-03T00:07:05;99937.72;;;25.28;33.49
24045;BME280;26257;49.442;8.422;2022-09-03T00:09:49;99935.97;;;25.11;34.16
24045;BME280;26257;49.442;8.422;2022-09-03T00:12:23;99947.34;;;25.02;34.18
24045;BME280;26257;49.442;8.422;2022-09-03T00:14:54;99947.34;;;25.02;34.21
24045;BME280;26257;49.442;8.422;2022-09-03T00:17:23;99949.94;;;25.04;34.13
24045;BME280;26257;49.442;8.422;2022-09-03T00:22:42;99947.50;;;25.15;33.92
24045;BME280;26257;49.442;8.422;2022-09-03T00:25:23;99949.44;;;25.13;33.97
24045;BME280;26257;49.442;8.422;2022-09-03T00:27:53;99936.16;;;25.08;34.11
24045;BME280;26257;49.442;8.422;2022-09-03T00:30:21;99944.38;;;24.74;34.41
24045;BME280;26257;49.442;8.422;2022-09-03T00:35:24;99944.38;;;24.74;34.70
24045;BME280;26257;49.442;8.422;2022-09-03T00:37:52;99943.53;;;24.58;35.18
24045;BME280;26257;49.442;8.422;2022-09-03T00:40:44;99949.94;;;24.88;34.84
24045;BME280;26257;49.442;8.422;2022-09-03T00:43:40;99948.06;;;24.73;35.06
24045;BME280;26257;49.442;8.422;2022-09-03T00:51:35;99934.44;;;24.92;35.03
24045;BME280;26257;49.442;8.422;2022-09-03T00:57:06;99938.63;;;24.82;35.04
24045;BME280;26257;49.442;8.422;2022-09-03T01:00:12;99936.75;;;24.82;34.95
24045;BME280;26257;49.442;8.422;2022-09-03T01:10:58;99938.22;;;24.72;35.83
24045;BME280;26257;49.442;8.422;2022-09-03T01:28:12;99943.84;;;24.52;36.74
24045;BME280;26257;49.442;8.422;2022-09-03T01:30:43;99949.88;;;24.57;36.29
24045;BME280;26257;49.442;8.422;2022-09-03T01:36:17;99945.53;;;24.70;36.25
24045;BME280;26257;49.442;8.422;2022-09-03T01:39:03;99951.78;;;24.55;36.50
24045;BME280;26257;49.442;8.422;2022-09-03T01:44:53;99947.72;;;24.31;37.08
24045;BME280;26257;49.442;8.422;2022-09-03T01:58:17;99952.03;;;24.18;37.56
24045;BME280;26257;49.442;8.422;2022-09-03T02:00:49;99943.59;;;24.07;37.63
24045;BME280;26257;49.442;8.422;2022-09-03T02:03:16;99943.47;;;23.92;37.93
24045;BME280;26257;49.442;8.422;2022-09-03T02:05:41;99946.00;;;23.95;38.05
24045;BME280;26257;49.442;8.422;2022-09-03T02:08:09;99952.97;;;24.00;37.95
24045;BME280;26257;49.442;8.422;2022-09-03T02:10:47;99957.09;;;23.89;37.92
24045;BME280;26257;49.442;8.422;2022-09-03T02:15:49;99960.44;;;23.77;37.98
24045;BME280;26257;49.442;8.422;2022-09-03T02:18:19;99963.75;;;24.00;37.66
24045;BME280;26257;49.442;8.422;2022-09-03T02:20:47;99978.84;;;23.86;37.97
24045;BME280;26257;49.442;8.422;2022-09-03T02:23:14;99966.47;;;23.65;38.13
24045;BME280;26257;49.442;8.422;2022-09-03T02:25:44;99976.59;;;23.60;38.14
24045;BME280;26257;49.442;8.422;2022-09-03T02:28:12;99969.97;;;23.84;37.95
24045;BME280;26257;49.442;8.422;2022-09-03T02:30:39;99966.00;;;23.91;38.08
24045;BME280;26257;49.442;8.422;2022-09-03T02:33:04;99969.72;;;23.72;37.90
24045;BME280;26257;49.442;8.422;2022-09-03T02:35:30;99968.69;;;23.74;38.29
24045;BME280;26257;49.442;8.422;2022-09-03T02:37:55;99972.19;;;23.76;37.97
24045;BME280;26257;49.442;8.422;2022-09-03T02:40:21;99964.88;;;23.78;38.01
24045;BME280;26257;49.442;8.422;2022-09-03T02:42:47;99959.47;;;23.78;37.67
24045;BME280;26257;49.442;8.422;2022-09-03T02:45:23;99964.56;;;23.84;37.96
24045;BME280;26257;49.442;8.422;2022-09-03T02:47:54;99977.56;;;23.76;38.72
24045;BME280;26257;49.442;8.422;2022-09-03T03:09:01;99953.34;;;22.67;41.50
24045;BME280;26257;49.442;8.422;2022-09-03T03:11:30;99953.25;;;23.06;40.12
24045;BME280;26257;49.442;8.422;2022-09-03T03:13:56;99955.28;;;23.20;39.87
24045;BME280;26257;49.442;8.422;2022-09-03T03:16:21;99957.97;;;23.20;39.81
24045;BME280;26257;49.442;8.422;2022-09-03T03:18:47;99950.03;;;23.17;40.29
24045;BME280;26257;49.442;8.422;2022-09-03T03:21:16;99955.56;;;23.14;40.12
24045;BME280;26257;49.442;8.422;2022-09-03T03:23:43;99949.41;;;23.29;38.99
24045;BME280;26257;49.442;8.422;2022-09-03T03:26:11;99946.78;;;23.46;38.99
24045;BME280;26257;49.442;8.422;2022-09-03T03:28:37;99941.22;;;23.49;38.85
24045;BME280;26257;49.442;8.422;2022-09-03T03:31:11;99941.22;;;23.49;39.10
24045;BME280;26257;49.442;8.422;2022-09-03T03:33:37;99940.44;;;23.47;39.25
24045;BME280;26257;49.442;8.422;2022-09-03T03:36:05;99939.50;;;23.48;39.25
24045;BME280;26257;49.442;8.422;2022-09-03T03:38:31;99953.72;;;23.33;39.68
24045;BME280;26257;49.442;8.422;2022-09-03T03:40:57;99949.25;;;23.32;39.50
24045;BME280;26257;49.442;8.422;2022-09-03T03:43:22;99947.59;;;23.29;39.09
24045;BME280;26257;49.442;8.422;2022-09-03T03:45:57;99952.63;;;23.37;40.02
24045;BME280;26257;49.442;8.422;2022-09-03T03:48:23;99948.22;;;23.53;39.04
24045;BME280;26257;49.442;8.422;2022-09-03T03:50:49;99949.78;;;23.40;39.96
24045;BME280;26257;49.442;8.422;2022-09-03T03:53:15;99945.44;;;23.55;39.37
24045;BME280;26257;49.442;8.422;2022-09-03T03:55:40;99954.50;;;23.35;39.99
24045;BME280;26257;49.442;8.422;2022-09-03T03:58:06;99954.38;;;23.38;39.49
24045;BME280;26257;49.442;8.422;2022-09-03T04:00:31;99960.19;;;23.29;39.50
24045;BME280;26257;49.442;8.422;2022-09-03T04:03:02;99962.75;;;23.32;39.11
24045;BME280;26257;49.442;8.422;2022-09-03T04:05:28;99951.69;;;23.38;39.20
24045;BME280;26257;49.442;8.422;2022-09-03T04:07:54;99961.22;;;23.45;38.85
24045;BME280;26257;49.442;8.422;2022-09-03T04:10:19;99960.66;;;23.20;39.05
24045;BME280;26257;49.442;8.422;2022-09-03T04:12:45;99953.22;;;23.25;39.19
24045;BME280;26257;49.442;8.422;2022-09-03T04:15:10;99965.16;;;23.19;39.32
24045;BME280;26257;49.442;8.422;2022-09-03T04:17:36;99965.91;;;23.23;39.52
24045;BME280;26257;49.442;8.422;2022-09-03T04:20:02;99965.09;;;23.21;39.57
24045;BME280;26257;49.442;8.422;2022-09-03T04:22:28;99970.09;;;23.28;39.82
24045;BME280;26257;49.442;8.422;2022-09-03T04:24:54;99975.22;;;23.16;39.86
24045;BME280;26257;49.442;8.422;2022-09-03T04:27:19;99977.75;;;23.19;40.16
24045;BME280;26257;49.442;8.422;2022-09-03T04:29:45;99973.78;;;22.90;41.55
24045;BME280;26257;49.442;8.422;2022-09-03T04:32:10;99970.25;;;22.51;43.79
24045;BME280;26257;49.442;8.422;2022-09-03T04:34:54;99985.94;;;22.41;44.46
24045;BME280;26257;49.442;8.422;2022-09-03T04:37:20;99967.63;;;22.29;44.72
24045;BME280;26257;49.442;8.422;2022-09-03T04:39:45;99978.66;;;22.43;44.11
24045;BME280;26257;49.442;8.422;2022-09-03T04:42:11;99981.59;;;22.57;44.45
24045;BME280;26257;49.442;8.422;2022-09-03T04:44:36;99981.34;;;22.63;44.76
24045;BME280;26257;49.442;8.422;2022-09-03T04:47:03;99988.84;;;22.55;45.19
24045;BME280;26257;49.442;8.422;2022-09-03T04:49:29;99983.69;;;22.51;45.64
24045;BME280;26257;49.442;8.422;2022-09-03T04:51:55;99988.63;;;22.41;46.09
24045;BME280;26257;49.442;8.422;2022-09-03T04:54:20;99984.31;;;22.57;45.99
24045;BME280;26257;49.442;8.422;2022-09-03T04:56:46;99985.81;;;22.44;45.71
24045;BME280;26257;49.442;8.422;2022-09-03T04:59:11;99981.50;;;22.40;46.35
24045;BME280;26257;49.442;8.422;2022-09-03T05:01:38;99992.16;;;22.23;45.67
24045;BME280;26257;49.442;8.422;2022-09-03T05:04:05;99998.44;;;22.42;45.45
24045;BME280;26257;49.442;8.422;2022-09-03T05:06:32;100000.63;;;22.34;45.84
24045;BME280;26257;49.442;8.422;2022-09-03T05:08:58;99991.88;;;22.29;45.12
24045;BME280;26257;49.442;8.422;2022-09-03T05:11:25;99996.31;;;22.30;45.43
24045;BME280;26257;49.442;8.422;2022-09-03T05:13:52;99993.50;;;22.33;44.96
24045;BME280;26257;49.442;8.422;2022-09-03T05:16:19;100000.63;;;22.34;44.98
24045;BME280;26257;49.442;8.422;2022-09-03T05:18:45;100006.16;;;22.31;44.86
24045;BME280;26257;49.442;8.422;2022-09-03T05:21:13;100006.59;;;22.41;44.74
24045;BME280;26257;49.442;8.422;2022-09-03T05:23:47;100011.06;;;22.60;44.55
24045;BME280;26257;49.442;8.422;2022-09-03T05:26:15;100015.19;;;22.69;44.31
24045;BME280;26257;49.442;8.422;2022-09-03T05:28:41;100008.66;;;22.54;44.57
24045;BME280;26257;49.442;8.422;2022-09-03T05:31:13;100014.75;;;22.19;45.23
24045;BME280;26257;49.442;8.422;2022-09-03T05:33:41;100022.00;;;22.37;44.74
24045;BME280;26257;49.442;8.422;2022-09-03T05:36:10;100016.34;;;22.43;44.63
24045;BME280;26257;49.442;8.422;2022-09-03T05:38:36;100020.00;;;22.61;44.72
24045;BME280;26257;49.442;8.422;2022-09-03T05:41:04;100026.56;;;22.55;44.81
24045;BME280;26257;49.442;8.422;2022-09-03T05:43:31;100027.28;;;22.59;44.83
24045;BME280;26257;49.442;8.422;2022-09-03T05:45:58;100029.69;;;22.85;44.67
24045;BME280;26257;49.442;8.422;2022-09-03T05:51:04;100025.19;;;23.04;44.39
24045;BME280;26257;49.442;8.422;2022-09-03T05:53:33;100025.19;;;22.86;45.02
24045;BME280;26257;49.442;8.422;2022-09-03T05:56:01;100029.09;;;22.97;44.89
24045;BME280;26257;49.442;8.422;2022-09-03T05:58:35;100025.63;;;23.14;44.66
24045;BME280;26257;49.442;8.422;2022-09-03T06:01:10;100031.56;;;23.20;44.60
24045;BME280;26257;49.442;8.422;2022-09-03T06:03:37;100029.56;;;23.07;44.60
24045;BME280;26257;49.442;8.422;2022-09-03T06:06:02;100030.88;;;23.17;44.78
24045;BME280;26257;49.442;8.422;2022-09-03T06:08:29;100043.56;;;23.15;44.65
24045;BME280;26257;49.442;8.422;2022-09-03T06:10:59;100041.75;;;22.77;45.59
24045;BME280;26257;49.442;8.422;2022-09-03T06:13:24;100034.31;;;23.02;45.18
24045;BME280;26257;49.442;8.422;2022-09-03T06:15:58;100039.19;;;22.94;45.78
24045;BME280;26257;49.442;8.422;2022-09-03T06:18:25;100041.31;;;22.67;45.72
24045;BME280;26257;49.442;8.422;2022-09-03T06:23:20;100048.13;;;22.15;49.79
24045;BME280;26257;49.442;8.422;2022-09-03T06:25:45;100059.97;;;21.46;52.95
24045;BME280;26257;49.442;8.422;2022-09-03T06:28:11;100064.66;;;21.19;58.29
24045;BME280;26257;49.442;8.422;2022-09-03T06:30:36;100068.25;;;20.72;61.63
24045;BME280;26257;49.442;8.422;2022-09-03T06:33:02;100072.41;;;20.31;66.31
24045;BME280;26257;49.442;8.422;2022-09-03T06:35:27;100069.03;;;20.26;70.64
24045;BME280;26257;49.442;8.422;2022-09-03T06:37:52;100071.84;;;20.21;72.02
24045;BME280;26257;49.442;8.422;2022-09-03T06:40:18;100071.44;;;20.33;72.83
24045;BME280;26257;49.442;8.422;2022-09-03T06:42:55;100071.69;;;20.27;72.22
24045;BME280;26257;49.442;8.422;2022-09-03T06:45:24;100068.72;;;20.35;71.90
24045;BME280;26257;49.442;8.422;2022-09-03T06:47:49;100077.41;;;20.42;73.25
24045;BME280;26257;49.442;8.422;2022-09-03T06:50:15;100078.34;;;20.41;74.30
24045;BME280;26257;49.442;8.422;2022-09-03T06:52:42;100082.47;;;20.51;76.58
24045;BME280;26257;49.442;8.422;2022-09-03T06:55:08;100079.31;;;20.63;75.98
24045;BME280;26257;49.442;8.422;2022-09-03T06:57:33;100079.22;;;20.66;75.56
24045;BME280;26257;49.442;8.422;2022-09-03T06:59:58;100082.06;;;20.61;75.16
24045;BME280;26257;49.442;8.422;2022-09-03T07:02:24;100081.53;;;20.52;77.29
24045;BME280;26257;49.442;8.422;2022-09-03T07:04:49;100079.31;;;20.63;76.74
24045;BME280;26257;49.442;8.422;2022-09-03T07:07:15;100090.38;;;20.29;80.58
24045;BME280;26257;49.442;8.422;2022-09-03T07:09:40;100094.13;;;20.50;80.36
24045;BME280;26257;49.442;8.422;2022-09-03T07:12:06;100090.06;;;20.63;80.74
24045;BME280;26257;49.442;8.422;2022-09-03T07:14:31;100091.72;;;20.67;80.75
24045;BME280;26257;49.442;8.422;2022-09-03T07:16:57;100097.97;;;20.67;79.95
24045;BME280;26257;49.442;8.422;2022-09-03T07:19:22;100106.53;;;20.52;79.80
24045;BME280;26257;49.442;8.422;2022-09-03T07:21:48;100111.41;;;20.66;79.04
24045;BME280;26257;49.442;8.422;2022-09-03T07:24:13;100108.69;;;20.67;83.07
24045;BME280;26257;49.442;8.422;2022-09-03T07:26:40;100109.34;;;20.74;83.71
24045;BME280;26257;49.442;8.422;2022-09-03T07:29:10;100108.06;;;20.84;83.86
24045;BME280;26257;49.442;8.422;2022-09-03T07:31:39;100108.81;;;20.64;81.44
24045;BME280;26257;49.442;8.422;2022-09-03T07:34:06;100104.31;;;20.65;81.86
24045;BME280;26257;49.442;8.422;2022-09-03T07:36:41;100106.91;;;20.15;91.08
24045;BME280;26257;49.442;8.422;2022-09-03T07:39:07;100105.19;;;20.41;85.99
24045;BME280;26257;49.442;8.422;2022-09-03T07:41:33;100110.56;;;20.41;85.29
24045;BME280;26257;49.442;8.422;2022-09-03T07:43:59;100112.94;;;20.23;90.25
24045;BME280;26257;49.442;8.422;2022-09-03T07:46:29;100114.06;;;20.43;88.08
24045;BME280;26257;49.442;8.422;2022-09-03T07:48:57;100112.44;;;20.39;87.68
24045;BME280;26257;49.442;8.422;2022-09-03T07:51:25;100123.34;;;20.33;88.20
24045;BME280;26257;49.442;8.422;2022-09-03T07:53:54;100121.91;;;20.22;91.89
24045;BME280;26257;49.442;8.422;2022-09-03T07:56:20;100103.69;;;20.06;95.48
24045;BME280;26257;49.442;8.422;2022-09-03T07:58:46;100104.38;;;19.86;100.00
24045;BME280;26257;49.442;8.422;2022-09-03T08:01:14;100110.47;;;19.91;100.00
24045;BME280;26257;49.442;8.422;2022-09-03T08:03:45;100115.41;;;20.29;97.88
24045;BME280;26257;49.442;8.422;2022-09-03T08:06:12;100109.59;;;20.15;97.49
24045;BME280;26257;49.442;8.422;2022-09-03T08:08:39;100103.41;;;20.13;94.65
24045;BME280;26257;49.442;8.422;2022-09-03T08:11:10;100120.94;;;19.97;97.83
24045;BME280;26257;49.442;8.422;2022-09-03T08:13:47;100112.19;;;19.92;100.00
24045;BME280;26257;49.442;8.422;2022-09-03T08:16:15;100102.16;;;19.99;99.92
24045;BME280;26257;49.442;8.422;2022-09-03T08:18:42;100099.63;;;19.94;100.00
24045;BME280;26257;49.442;8.422;2022-09-03T08:21:13;100112.38;;;19.60;100.00
24045;BME280;26257;49.442;8.422;2022-09-03T08:23:40;100110.75;;;20.08;100.00
24045;BME280;26257;49.442;8.422;2022-09-03T08:26:06;100102.53;;;19.87;100.00
24045;BME280;26257;49.442;8.422;2022-09-03T08:28:33;100110.47;;;19.91;100.00
24045;BME280;26257;49.442;8.422;2022-09-03T08:31:12;100117.25;;;20.54;96.73
24045;BME280;26257;49.442;8.422;2022-09-03T08:33:40;100149.63;;;19.95;100.00
24045;BME280;26257;49.442;8.422;2022-09-03T08:38:34;100163.91;;;20.23;97.42
24045;BME280;26257;49.442;8.422;2022-09-03T08:46:58;100183.75;;;19.90;100.00
24045;BME280;26257;49.442;8.422;2022-09-03T09:08:34;100208.13;;;19.55;100.00
24045;BME280;26257;49.442;8.422;2022-09-03T09:11:17;100188.41;;;20.39;100.00
24045;BME280;26257;49.442;8.422;2022-09-03T09:14:12;100189.31;;;20.64;100.00
24045;BME280;26257;49.442;8.422;2022-09-03T09:16:51;100177.03;;;21.31;100.00
24045;BME280;26257;49.442;8.422;2022-09-03T09:19:30;100174.78;;;21.66;94.71
24045;BME280;26257;49.442;8.422;2022-09-03T09:22:02;100167.41;;;21.71;96.98
24045;BME280;26257;49.442;8.422;2022-09-03T09:24:38;100171.00;;;21.93;95.57
24045;BME280;26257;49.442;8.422;2022-09-03T09:27:05;100165.50;;;22.59;85.11
24045;BME280;26257;49.442;8.422;2022-09-03T09:29:35;100168.66;;;22.89;81.02
24045;BME280;26257;49.442;8.422;2022-09-03T09:32:01;100166.09;;;23.45;81.28
24045;BME280;26257;49.442;8.422;2022-09-03T09:34:33;100151.78;;;23.80;73.03
24045;BME280;26257;49.442;8.422;2022-09-03T09:37:02;100159.41;;;23.54;71.45
24045;BME280;26257;49.442;8.422;2022-09-03T09:39:28;100154.91;;;23.54;71.46
24045;BME280;26257;49.442;8.422;2022-09-03T09:42:04;100159.03;;;23.43;73.27
24045;BME280;26257;49.442;8.422;2022-09-03T09:44:37;100162.75;;;23.40;72.98
24045;BME280;26257;49.442;8.422;2022-09-03T09:52:14;100154.88;;;23.73;69.49
24045;BME280;26257;49.442;8.422;2022-09-03T09:54:43;100156.88;;;24.24;68.54
24045;BME280;26257;49.442;8.422;2022-09-03T09:57:21;100143.69;;;24.35;67.47
24045;BME280;26257;49.442;8.422;2022-09-03T09:59:47;100150.69;;;24.73;65.56
24045;BME280;26257;49.442;8.422;2022-09-03T10:02:25;100150.84;;;24.87;65.26
24045;BME280;26257;49.442;8.422;2022-09-03T10:04:52;100152.53;;;25.71;60.88
24045;BME280;26257;49.442;8.422;2022-09-03T10:07:53;100142.13;;;26.70;56.51
24045;BME280;26257;49.442;8.422;2022-09-03T10:10:44;100142.72;;;26.31;54.79
24045;BME280;26257;49.442;8.422;2022-09-03T10:13:23;100137.16;;;26.78;55.07
24045;BME280;26257;49.442;8.422;2022-09-03T10:18:39;100136.34;;;26.62;55.90
24045;BME280;26257;49.442;8.422;2022-09-03T10:21:16;100129.06;;;26.92;58.06
24045;BME280;26257;49.442;8.422;2022-09-03T10:40:07;100110.50;;;30.70;43.92
24045;BME280;26257;49.442;8.422;2022-09-03T10:45:17;100112.03;;;30.50;42.99
24045;BME280;26257;49.442;8.422;2022-09-03T10:59:33;100114.16;;;30.47;44.23
24045;BME280;26257;49.442;8.422;2022-09-03T11:02:27;100110.22;;;31.74;40.75
24045;BME280;26257;49.442;8.422;2022-09-03T11:05:06;100116.56;;;31.31;41.84
24045;BME280;26257;49.442;8.422;2022-09-03T11:07:42;100107.88;;;31.59;40.44
24045;BME280;26257;49.442;8.422;2022-09-03T11:10:18;100112.81;;;31.76;39.48
24045;BME280;26257;49.442;8.422;2022-09-03T11:13:11;100116.66;;;30.50;43.00
24045;BME280;26257;49.442;8.422;2022-09-03T11:15:52;100107.84;;;30.92;42.51
24045;BME280;26257;49.442;8.422;2022-09-03T11:18:49;100121.59;;;29.11;47.54
24045;BME280;26257;49.442;8.422;2022-09-03T11:21:24;100120.63;;;29.73;45.42
24045;BME280;26257;49.442;8.422;2022-09-03T11:26:33;100117.25;;;28.31;51.29
24045;BME280;26257;49.442;8.422;2022-09-03T11:36:48;100080.72;;;35.56;33.18
24045;BME280;26257;49.442;8.422;2022-09-03T11:39:33;100072.72;;;35.89;32.79
24045;BME280;26257;49.442;8.422;2022-09-03T11:42:02;100068.34;;;33.71;36.28
24045;BME280;26257;49.442;8.422;2022-09-03T11:44:40;100070.88;;;34.12;34.98
24045;BME280;26257;49.442;8.422;2022-09-03T11:47:37;100074.16;;;34.16;35.48
24045;BME280;26257;49.442;8.422;2022-09-03T11:50:28;100086.78;;;31.28;39.48
24045;BME280;26257;49.442;8.422;2022-09-03T11:53:20;100074.53;;;33.83;35.90
24045;BME280;26257;49.442;8.422;2022-09-03T11:55:55;100072.13;;;34.75;33.65
24045;BME280;26257;49.442;8.422;2022-09-03T11:58:34;100070.88;;;35.80;32.51
24045;BME280;26257;49.442;8.422;2022-09-03T12:01:03;100061.19;;;37.00;29.73
24045;BME280;26257;49.442;8.422;2022-09-03T12:03:44;100074.78;;;35.51;31.48
24045;BME280;26257;49.442;8.422;2022-09-03T12:21:49;100062.97;;;32.06;37.61
24045;BME280;26257;49.442;8.422;2022-09-03T12:24:18;100053.72;;;33.21;35.43
24045;BME280;26257;49.442;8.422;2022-09-03T12:26:44;100051.09;;;34.09;34.27
24045;BME280;26257;49.442;8.422;2022-09-03T12:39:49;100058.03;;;35.17;31.87
24045;BME280;26257;49.442;8.422;2022-09-03T12:42:21;100045.19;;;36.52;30.32
24045;BME280;26257;49.442;8.422;2022-09-03T12:44:48;100061.31;;;35.30;32.15
24045;BME280;26257;49.442;8.422;2022-09-03T12:47:16;100054.75;;;36.48;29.60
24045;BME280;26257;49.442;8.422;2022-09-03T12:49:43;100063.84;;;35.41;32.03
24045;BME280;26257;49.442;8.422;2022-09-03T12:57:38;100070.81;;;33.53;34.78
24045;BME280;26257;49.442;8.422;2022-09-03T13:00:07;100086.28;;;31.56;38.63
24045;BME280;26257;49.442;8.422;2022-09-03T13:05:14;100069.97;;;33.13;35.99
24045;BME280;26257;49.442;8.422;2022-09-03T13:07:45;100075.31;;;34.42;34.21
24045;BME280;26257;49.442;8.422;2022-09-03T13:10:37;100079.09;;;32.41;37.15
24045;BME280;26257;49.442;8.422;2022-09-03T13:13:26;100084.56;;;32.41;37.02
24045;BME280;26257;49.442;8.422;2022-09-03T13:30:31;100085.78;;;30.26;41.64
24045;BME280;26257;49.442;8.422;2022-09-03T13:36:12;100074.72;;;32.17;38.60
24045;BME280;26257;49.442;8.422;2022-09-03T13:39:02;100060.41;;;33.78;34.92
24045;BME280;26257;49.442;8.422;2022-09-03T13:41:52;100053.03;;;36.12;31.41
24045;BME280;26257;49.442;8.422;2022-09-03T13:44:43;100058.72;;;34.53;32.96
24045;BME280;26257;49.442;8.422;2022-09-03T13:47:42;100063.84;;;33.61;34.99
24045;BME280;26257;49.442;8.422;2022-09-03T13:50:41;100060.34;;;34.18;33.58
24045;BME280;26257;49.442;8.422;2022-09-03T14:17:05;100049.88;;;33.83;33.96
24045;BME280;26257;49.442;8.422;2022-09-03T14:19:57;100054.53;;;32.29;36.66
24045;BME280;26257;49.442;8.422;2022-09-03T14:22:39;100055.06;;;32.23;37.57
24045;BME280;26257;49.442;8.422;2022-09-03T14:25:22;100062.22;;;31.39;38.85
24045;BME280;26257;49.442;8.422;2022-09-03T14:28:33;100058.69;;;32.45;37.81
24045;BME280;26257;49.442;8.422;2022-09-03T14:31:30;100065.19;;;32.85;37.08
24045;BME280;26257;49.442;8.422;2022-09-03T14:45:29;100075.25;;;29.98;44.04
24045;BME280;26257;49.442;8.422;2022-09-03T15:07:41;100080.22;;;26.64;58.00
24045;BME280;26257;49.442;8.422;2022-09-03T15:10:49;100077.72;;;26.31;59.26
24045;BME280;26257;49.442;8.422;2022-09-03T15:13:28;100105.53;;;26.03;61.88
24045;BME280;26257;49.442;8.422;2022-09-03T15:19:09;100117.94;;;24.62;78.89
24045;BME280;26257;49.442;8.422;2022-09-03T15:27:30;100118.13;;;23.70;95.80
24045;BME280;26257;49.442;8.422;2022-09-03T15:35:42;100115.25;;;22.99;100.00
24045;BME280;26257;49.442;8.422;2022-09-03T15:41:03;100110.66;;;23.01;100.00
24045;BME280;26257;49.442;8.422;2022-09-03T15:43:32;100113.94;;;22.89;100.00
24045;BME280;26257;49.442;8.422;2022-09-03T15:49:03;100104.63;;;22.96;100.00
24045;BME280;26257;49.442;8.422;2022-09-03T15:51:35;100108.72;;;23.04;100.00
24045;BME280;26257;49.442;8.422;2022-09-03T15:54:18;100104.44;;;23.19;100.00
24045;BME280;26257;49.442;8.422;2022-09-03T15:56:59;100108.06;;;23.18;100.00
24045;BME280;26257;49.442;8.422;2022-09-03T15:59:36;100106.91;;;23.23;100.00
24045;BME280;26257;49.442;8.422;2022-09-03T16:02:14;100107.06;;;23.39;100.00
24045;BME280;26257;49.442;8.422;2022-09-03T16:04:58;100100.47;;;23.26;100.00
24045;BME280;26257;49.442;8.422;2022-09-03T16:13:00;100109.72;;;23.59;100.00
24045;BME280;26257;49.442;8.422;2022-09-03T16:15:35;100123.22;;;23.76;100.00
24045;BME280;26257;49.442;8.422;2022-09-03T16:21:01;100119.47;;;23.98;100.00
24045;BME280;26257;49.442;8.422;2022-09-03T16:24:04;100122.03;;;24.01;100.00
24045;BME280;26257;49.442;8.422;2022-09-03T16:29:12;100115.75;;;24.00;99.07
24045;BME280;26257;49.442;8.422;2022-09-03T16:34:38;100125.56;;;23.84;100.00
24045;BME280;26257;49.442;8.422;2022-09-03T16:51:10;100146.09;;;23.86;100.00
24045;BME280;26257;49.442;8.422;2022-09-03T17:16:33;100153.38;;;24.22;100.00
24045;BME280;26257;49.442;8.422;2022-09-03T17:25:00;100132.91;;;25.35;98.49
24045;BME280;26257;49.442;8.422;2022-09-03T17:31:39;100132.13;;;25.81;95.25
24045;BME280;26257;49.442;8.422;2022-09-03T17:48:45;100139.41;;;25.48;88.23
24045;BME280;26257;49.442;8.422;2022-09-03T17:51:41;100140.91;;;25.53;84.72
24045;BME280;26257;49.442;8.422;2022-09-03T17:57:12;100160.53;;;24.91;90.79
24045;BME280;26257;49.442;8.422;2022-09-03T17:59:43;100166.59;;;24.79;94.35
24045;BME280;26257;49.442;8.422;2022-09-03T18:04:47;100178.47;;;24.24;100.00
24045;BME280;26257;49.442;8.422;2022-09-03T18:07:37;100181.00;;;24.27;100.00
24045;BME280;26257;49.442;8.422;2022-09-03T18:10:26;100187.34;;;24.26;100.00
24045;BME280;26257;49.442;8.422;2022-09-03T18:13:15;100194.44;;;24.10;100.00
24045;BME280;26257;49.442;8.422;2022-09-03T18:15:53;100188.63;;;24.19;100.00
24045;BME280;26257;49.442;8.422;2022-09-03T18:18:30;100196.09;;;24.31;100.00
24045;BME280;26257;49.442;8.422;2022-09-03T18:21:06;100195.44;;;24.26;100.00
24045;BME280;26257;49.442;8.422;2022-09-03T18:27:02;100218.31;;;23.81;100.00
24045;BME280;26257;49.442;8.422;2022-09-03T18:30:05;100217.41;;;24.00;100.00
24045;BME280;26257;49.442;8.422;2022-09-03T18:32:50;100228.06;;;23.65;100.00
24045;BME280;26257;49.442;8.422;2022-09-03T18:35:35;100232.06;;;23.75;100.00
24045;BME280;26257;49.442;8.422;2022-09-03T18:38:28;100230.84;;;23.82;100.00
24045;BME280;26257;49.442;8.422;2022-09-03T18:42:03;100235.78;;;23.73;100.00
24045;BME280;26257;49.442;8.422;2022-09-03T18:45:00;100233.19;;;23.71;100.00
24045;BME280;26257;49.442;8.422;2022-09-03T18:48:03;100228.66;;;23.53;100.00
24045;BME280;26257;49.442;8.422;2022-09-03T18:51:00;100230.94;;;23.42;100.00
24045;BME280;26257;49.442;8.422;2022-09-03T18:56:52;100235.88;;;23.71;100.00
24045;BME280;26257;49.442;8.422;2022-09-03T19:03:01;100248.03;;;23.61;100.00
24045;BME280;26257;49.442;8.422;2022-09-03T19:09:03;100244.97;;;23.30;100.00
24045;BME280;26257;49.442;8.422;2022-09-03T19:15:13;100257.38;;;23.14;100.00
24045;BME280;26257;49.442;8.422;2022-09-03T19:24:05;100251.53;;;23.63;100.00
24045;BME280;26257;49.442;8.422;2022-09-03T19:33:02;100265.53;;;23.71;100.00
24045;BME280;26257;49.442;8.422;2022-09-03T19:41:38;100274.69;;;23.49;100.00
24045;BME280;26257;49.442;8.422;2022-09-03T19:47:35;100271.47;;;23.41;100.00
24045;BME280;26257;49.442;8.422;2022-09-03T19:50:29;100273.94;;;23.45;100.00
24045;BME280;26257;49.442;8.422;2022-09-03T19:53:17;100278.19;;;23.51;100.00
24045;BME280;26257;49.442;8.422;2022-09-03T19:56:05;100281.06;;;23.26;100.00
24045;BME280;26257;49.442;8.422;2022-09-03T19:58:57;100284.44;;;23.31;100.00
24045;BME280;26257;49.442;8.422;2022-09-03T20:01:44;100273.69;;;23.51;100.00
24045;BME280;26257;49.442;8.422;2022-09-03T20:04:31;100275.41;;;23.52;100.00
24045;BME280;26257;49.442;8.422;2022-09-03T20:07:16;100271.25;;;23.45;100.00